createdAt,value
2019-02-28T00:00:37.185Z,8.85
2019-02-28T00:05:45.388Z,8.91
2019-02-28T00:10:54.133Z,8.95
2019-02-28T00:16:04.035Z,9.81
2019-02-28T00:21:12.352Z,9.25
2019-02-28T00:26:22.317Z,9.11
2019-02-28T00:31:30.799Z,8.58
2019-02-28T00:36:40.528Z,8.89
2019-02-28T00:41:48.941Z,9.94
2019-02-28T00:46:57.830Z,9.86
2019-02-28T00:52:06.309Z,9.49
2019-02-28T00:57:16.153Z,9.84
2019-02-28T01:02:24.686Z,9.94
2019-02-28T01:07:33.759Z,10.48
2019-02-28T01:12:42.137Z,9.44
2019-02-28T01:17:50.913Z,9.45
2019-02-28T01:22:59.552Z,9.06
2019-02-28T01:28:09.301Z,9.03
2019-02-28T01:33:17.976Z,9.49
2019-02-28T01:38:26.650Z,9.60
2019-02-28T01:43:35.048Z,9.29
2019-02-28T01:48:43.848Z,9.22
2019-02-28T01:53:53.558Z,9.11
2019-02-28T01:59:01.677Z,9.83
2019-02-28T02:04:12.551Z,9.48
2019-02-28T02:09:18.252Z,9.35
2019-02-28T02:14:26.821Z,9.98
2019-02-28T02:19:35.504Z,10.02
2019-02-28T02:24:43.935Z,9.89
2019-02-28T02:29:52.885Z,9.85
2019-02-28T02:35:06.102Z,9.84
2019-02-28T02:40:09.436Z,10.15
2019-02-28T02:45:17.803Z,10.06
2019-02-28T02:50:34.044Z,9.93
2019-02-28T02:55:34.427Z,10.23
2019-02-28T03:00:49.743Z,9.69
2019-02-28T03:05:51.203Z,9.79
2019-02-28T03:10:59.961Z,9.90
2019-02-28T03:16:08.446Z,9.30
2019-02-28T03:21:17.093Z,9.18
2019-02-28T03:26:25.418Z,9.45
2019-02-28T03:31:34.202Z,9.87
2019-02-28T03:36:42.652Z,10.05
2019-02-28T03:41:53.010Z,9.86
2019-02-28T03:46:59.553Z,9.83
2019-02-28T03:52:08.364Z,10.18
2019-02-28T03:57:16.744Z,9.89
2019-02-28T04:02:25.769Z,10.53
2019-02-28T04:07:34.731Z,9.69
2019-02-28T04:12:45.640Z,10.22
2019-02-28T04:17:50.500Z,9.36
2019-02-28T04:23:00.236Z,9.49
2019-02-28T04:28:07.196Z,10.13
2019-02-28T04:33:16.317Z,10.54
2019-02-28T04:38:24.621Z,10.34
2019-02-28T04:43:33.457Z,10.45
2019-02-28T04:48:41.856Z,10.38
2019-02-28T04:53:52.991Z,11.30
2019-02-28T04:58:59.698Z,11.50
2019-02-28T05:04:07.073Z,10.84
2019-02-28T05:09:15.690Z,11.03
2019-02-28T05:14:24.422Z,11.22
2019-02-28T05:19:35.747Z,10.89
2019-02-28T05:24:42.607Z,11.29
2019-02-28T05:29:47.985Z,11.40
2019-02-28T05:34:56.817Z,12.02
2019-02-28T05:40:06.104Z,12.27
2019-02-28T05:45:15.677Z,11.22
2019-02-28T05:50:22.684Z,11.42
2019-02-28T05:55:32.561Z,10.97
2019-02-28T06:00:39.480Z,11.89
2019-02-28T06:05:53.173Z,11.30
2019-02-28T06:10:56.027Z,10.86
2019-02-28T06:16:01.568Z,11.46
2019-02-28T06:21:11.255Z,10.77
2019-02-28T06:26:19.816Z,11.03
2019-02-28T06:31:30.539Z,11.42
2019-02-28T06:36:29.343Z,11.12
2019-02-28T06:41:39.833Z,11.59
2019-02-28T06:46:46.151Z,12.51
2019-02-28T06:51:54.672Z,11.75
2019-02-28T06:57:03.374Z,12.17
2019-02-28T07:02:11.905Z,11.54
2019-02-28T07:07:20.740Z,11.60
2019-02-28T07:12:29.958Z,12.29
2019-02-28T07:17:42.731Z,12.72
2019-02-28T07:22:40.093Z,12.13
2019-02-28T07:27:48.371Z,11.67
2019-02-28T07:32:56.803Z,11.49
2019-02-28T07:38:05.459Z,11.10
2019-02-28T07:43:13.877Z,10.67
2019-02-28T07:48:26.803Z,10.49
2019-02-28T07:53:30.573Z,10.90
2019-02-28T07:58:39.181Z,10.55
2019-02-28T08:03:47.651Z,11.01
2019-02-28T08:08:56.090Z,11.42
2019-02-28T08:14:04.581Z,11.16
2019-02-28T08:19:13.340Z,11.44
2019-02-28T08:24:22.369Z,11.70
2019-02-28T08:29:31.106Z,12.03
2019-02-28T08:34:40.152Z,12.49
2019-02-28T08:39:49.170Z,13.02
2019-02-28T08:44:59.138Z,13.38
2019-02-28T08:50:06.840Z,12.86
2019-02-28T08:55:16.064Z,13.61
2019-02-28T09:00:31.331Z,13.50
2019-02-28T09:05:33.855Z,13.79
2019-02-28T09:10:52.453Z,14.18
2019-02-28T09:15:51.413Z,14.77
2019-02-28T09:21:00.745Z,14.67
2019-02-28T09:26:09.127Z,15.15
2019-02-28T09:31:18.326Z,15.07
2019-02-28T09:36:27.345Z,15.57
2019-02-28T09:41:40.078Z,16.33
2019-02-28T09:46:47.517Z,17.00
2019-02-28T09:51:54.040Z,17.92
2019-02-28T09:57:02.717Z,18.06
2019-02-28T10:02:13.156Z,18.67
2019-02-28T10:07:12.359Z,19.73
2019-02-28T10:12:21.617Z,21.36
2019-02-28T10:27:45.581Z,21.83
2019-02-28T10:32:54.258Z,21.92
2019-02-28T10:38:03.558Z,21.92
2019-02-28T10:43:15.422Z,23.02
2019-02-28T10:48:21.626Z,22.87
2019-02-28T10:53:31.377Z,22.90
2019-02-28T10:58:54.016Z,23.57
2019-02-28T11:03:42.947Z,24.06
2019-02-28T11:08:51.857Z,24.18
2019-02-28T11:14:38.682Z,26.49
2019-02-28T11:19:48.529Z,25.22
2019-02-28T11:24:57.267Z,24.78
2019-02-28T11:30:03.312Z,24.42
2019-02-28T11:35:13.633Z,24.71
2019-02-28T11:40:12.513Z,24.97
2019-02-28T11:45:22.071Z,25.79
2019-02-28T11:50:30.810Z,25.52
2019-02-28T11:55:29.789Z,24.53
2019-02-28T12:00:38.738Z,24.98
2019-02-28T12:05:50.656Z,23.75
2019-02-28T12:10:58.442Z,24.65
2019-02-28T12:16:06.928Z,23.68
2019-02-28T12:21:07.312Z,24.14
2019-02-28T12:26:08.060Z,24.26
2019-02-28T12:31:07.377Z,23.60
2019-02-28T12:36:16.387Z,23.11
2019-02-28T12:41:26.234Z,22.87
2019-02-28T12:46:34.188Z,22.88
2019-02-28T12:51:44.432Z,22.11
2019-02-28T12:56:45.165Z,22.11
2019-02-28T13:01:51.881Z,21.83
2019-02-28T13:07:01.142Z,20.21
2019-02-28T13:12:12.113Z,19.95
2019-02-28T13:17:19.128Z,20.44
2019-02-28T13:22:27.662Z,19.26
2019-02-28T13:27:37.005Z,19.33
2019-02-28T13:32:45.930Z,18.55
2019-02-28T13:37:55.664Z,17.43
2019-02-28T13:43:04.602Z,17.55
2019-02-28T13:48:26.226Z,15.70
2019-02-28T13:53:23.384Z,15.89
2019-02-28T13:58:30.670Z,16.94
2019-02-28T14:03:42.289Z,16.75
2019-02-28T14:08:48.096Z,17.12
2019-02-28T14:13:56.967Z,16.05
2019-02-28T14:19:06.309Z,17.29
2019-02-28T14:24:15.480Z,16.89
2019-02-28T14:29:25.600Z,16.88
2019-02-28T14:34:26.201Z,15.82
2019-02-28T14:39:33.335Z,15.93
2019-02-28T14:44:42.777Z,15.34
2019-02-28T14:49:52.779Z,15.96
2019-02-28T14:55:00.681Z,15.67
2019-02-28T15:00:09.765Z,17.56
2019-02-28T15:05:20.665Z,17.38
2019-02-28T15:10:27.184Z,17.29
2019-02-28T15:15:36.354Z,18.47
2019-02-28T15:20:44.421Z,20.14
2019-02-28T15:25:54.217Z,20.30
2019-02-28T15:31:02.719Z,22.40
2019-02-28T15:36:11.948Z,24.05
2019-02-28T15:41:21.063Z,22.74
2019-02-28T15:46:31.280Z,23.85
2019-02-28T15:51:30.343Z,22.97
2019-02-28T15:56:39.462Z,23.69
2019-02-28T16:01:49.781Z,23.55
2019-02-28T16:06:56.566Z,24.29
2019-02-28T16:11:57.584Z,24.40
2019-02-28T16:17:06.410Z,24.79
2019-02-28T16:22:18.155Z,24.48
2019-02-28T16:27:24.000Z,24.69
2019-02-28T16:32:33.197Z,24.29
2019-02-28T16:37:42.137Z,25.18
2019-02-28T16:42:51.577Z,25.00
2019-02-28T16:48:02.884Z,25.30
2019-02-28T16:53:14.767Z,25.49
2019-02-28T16:58:18.649Z,35.06
2019-02-28T17:03:26.503Z,36.29
2019-02-28T17:08:35.805Z,35.81
2019-02-28T17:13:45.010Z,34.53
2019-02-28T17:18:56.561Z,33.02
2019-02-28T17:24:01.634Z,27.62
2019-02-28T17:29:12.212Z,18.34
2019-02-28T17:34:11.906Z,9.85
2019-02-28T17:39:20.808Z,8.58
2019-02-28T17:44:30.076Z,7.38
2019-02-28T17:49:39.644Z,6.74
2019-02-28T17:54:49.930Z,6.10
2019-02-28T17:59:49.212Z,4.28
2019-02-28T18:04:58.211Z,3.75
2019-02-28T18:10:07.515Z,4.08
2019-02-28T18:15:17.023Z,3.28
2019-02-28T18:20:28.951Z,4.93
2019-02-28T18:25:34.790Z,8.74
2019-02-28T18:30:46.156Z,8.28
2019-02-28T18:35:52.027Z,8.12
2019-02-28T18:41:05.646Z,7.26
2019-02-28T18:46:09.666Z,6.66
2019-02-28T18:51:50.798Z,7.18
2019-02-28T18:57:00.048Z,7.05
2019-02-28T19:02:09.025Z,6.78
2019-02-28T19:07:18.623Z,7.10
2019-02-28T19:12:27.593Z,7.36
2019-02-28T19:17:36.880Z,7.25
2019-02-28T19:22:45.833Z,7.13
2019-02-28T19:28:02.088Z,7.90
2019-02-28T19:32:59.806Z,8.43
2019-02-28T19:38:09.265Z,9.05
2019-02-28T19:43:18.248Z,8.86
2019-02-28T19:48:27.469Z,9.64
2019-02-28T19:53:35.902Z,10.28
2019-02-28T19:58:44.974Z,10.31
2019-02-28T20:03:54.585Z,10.04
2019-02-28T20:09:05.644Z,10.37
2019-02-28T20:14:05.090Z,10.60
2019-02-28T20:19:14.284Z,10.93
2019-02-28T20:24:23.701Z,10.64
2019-02-28T20:29:33.070Z,10.92
2019-02-28T20:34:42.494Z,10.91
2019-02-28T20:39:51.496Z,10.22
2019-02-28T20:45:01.349Z,10.85
2019-02-28T20:50:10.186Z,10.36
2019-02-28T20:55:19.492Z,11.32
2019-02-28T21:00:28.511Z,11.36
2019-02-28T21:05:38.314Z,12.31
2019-02-28T21:10:47.285Z,11.94
2019-02-28T21:15:56.511Z,12.92
2019-02-28T21:21:05.493Z,12.83
2019-02-28T21:26:14.796Z,13.03
2019-02-28T21:31:23.845Z,13.53
2019-02-28T21:36:34.264Z,13.33
2019-02-28T21:41:33.412Z,13.75
2019-02-28T21:46:43.566Z,13.63
2019-02-28T21:51:43.322Z,12.91
2019-02-28T21:56:52.397Z,12.67
2019-02-28T22:02:02.115Z,12.20
2019-02-28T22:07:10.972Z,12.39
2019-02-28T22:12:19.418Z,12.58
2019-02-28T22:17:27.919Z,12.32
2019-02-28T22:22:37.729Z,13.09
2019-02-28T22:27:46.789Z,13.07
2019-02-28T22:32:56.048Z,13.08
2019-02-28T22:38:04.896Z,12.54
2019-02-28T22:43:13.857Z,11.79
2019-02-28T22:48:22.741Z,11.63
2019-02-28T22:53:31.992Z,11.96
2019-02-28T22:58:41.186Z,12.25
2019-02-28T23:03:51.362Z,11.68
2019-02-28T23:08:50.280Z,11.57
2019-02-28T23:13:58.734Z,10.87
2019-02-28T23:19:07.966Z,10.51
2019-02-28T23:24:17.223Z,9.64
2019-02-28T23:29:27.623Z,8.73
2019-02-28T23:34:26.659Z,8.22
2019-02-28T23:39:35.799Z,8.30
2019-02-28T23:44:45.053Z,8.18
2019-02-28T23:49:53.978Z,7.12
2019-02-28T23:55:03.444Z,7.23
